createdAt,value
2018-05-02T09:16:15.829Z,2.40
2018-05-02T09:18:42.546Z,1.10
2018-05-02T09:21:09.423Z,0.83
2018-05-02T09:23:36.197Z,0.83
2018-05-02T09:26:02.898Z,0.70
2018-05-02T09:28:29.568Z,0.90
2018-05-02T09:30:56.255Z,0.90
2018-05-02T09:33:22.947Z,0.80
2018-05-02T09:35:49.651Z,0.90
2018-05-02T09:38:16.918Z,0.93
2018-05-02T09:40:44.287Z,0.70
2018-05-02T09:43:10.962Z,0.90
2018-05-02T09:45:37.649Z,0.80
2018-05-02T09:48:04.589Z,0.97
2018-05-02T09:50:31.270Z,0.63
2018-05-02T09:52:58.164Z,0.87
2018-05-02T09:55:25.009Z,0.90
2018-05-02T09:57:51.692Z,0.70
2018-05-02T10:00:18.390Z,0.80
2018-05-02T10:02:45.127Z,0.80
2018-05-02T10:05:11.950Z,0.70
2018-05-02T10:07:39.027Z,0.77
2018-05-02T10:10:05.720Z,0.67
2018-05-02T10:12:33.441Z,0.90
2018-05-02T10:15:00.161Z,0.60
2018-05-02T10:17:26.853Z,0.73
2018-05-02T10:19:53.641Z,0.70
2018-05-02T10:22:20.332Z,0.70
2018-05-02T10:24:47.018Z,0.90
2018-05-02T10:27:13.836Z,0.73
2018-05-02T10:29:40.586Z,0.73
2018-05-02T10:32:07.268Z,0.80
2018-05-02T10:34:34.084Z,0.80
2018-05-02T10:37:00.997Z,0.80
2018-05-02T10:39:27.615Z,0.67
2018-05-02T10:41:54.317Z,0.70
2018-05-02T10:44:21.064Z,0.57
2018-05-02T10:46:47.847Z,0.60
2018-05-02T10:49:14.628Z,0.70
2018-05-02T10:51:41.317Z,0.83
2018-05-02T10:54:08.196Z,0.83
2018-05-02T10:56:35.768Z,0.83
2018-05-02T10:59:02.497Z,0.70
2018-05-02T11:01:29.194Z,0.80
2018-05-02T11:03:55.901Z,0.90
2018-05-02T11:06:22.605Z,0.73
2018-05-02T11:08:49.293Z,1.17
2018-05-02T11:11:15.978Z,0.60
2018-05-02T11:13:42.663Z,0.87
2018-05-02T11:16:09.342Z,0.70
2018-05-02T11:18:36.209Z,0.60
2018-05-02T11:21:03.037Z,0.60
2018-05-02T11:23:29.721Z,0.70
2018-05-02T11:25:56.529Z,0.70
2018-05-02T11:28:23.235Z,0.70
2018-05-02T11:30:50.013Z,0.83
2018-05-02T11:33:16.835Z,0.97
2018-05-02T11:35:43.523Z,0.70
2018-05-02T11:38:10.207Z,0.87
2018-05-02T11:40:36.955Z,0.90
2018-05-02T11:43:03.801Z,1.53
2018-05-02T11:45:30.648Z,14.03
2018-05-02T11:47:57.482Z,14.45
2018-05-02T11:50:24.336Z,38.37
2018-05-02T11:52:51.050Z,45.38
2018-05-02T11:55:18.015Z,42.33
2018-05-02T11:57:44.930Z,40.97
2018-05-02T12:00:11.602Z,38.88
2018-05-02T12:02:38.370Z,39.88
2018-05-02T12:05:05.085Z,37.60
2018-05-02T12:07:31.780Z,37.33
2018-05-02T12:09:58.670Z,35.37
2018-05-02T12:12:25.372Z,36.50
2018-05-02T12:14:52.156Z,35.60
2018-05-02T12:17:18.856Z,31.35
2018-05-02T12:19:45.940Z,29.63
2018-05-02T12:22:12.670Z,28.80
2018-05-02T12:24:39.518Z,27.83
2018-05-02T12:27:06.209Z,29.37
2018-05-02T12:29:32.944Z,26.37
2018-05-02T12:31:59.660Z,26.90
2018-05-02T12:34:26.364Z,25.10
2018-05-02T12:36:53.093Z,23.63
2018-05-02T12:39:19.821Z,24.30
2018-05-02T12:41:46.609Z,22.80
2018-05-02T12:44:13.302Z,22.77
2018-05-02T12:46:40.108Z,21.27
2018-05-02T12:49:06.915Z,20.00
2018-05-02T12:51:33.632Z,19.48
2018-05-02T12:54:01.215Z,19.95
2018-05-02T12:56:27.905Z,19.50
2018-05-02T12:58:54.607Z,17.00
2018-05-02T13:01:21.324Z,17.95
2018-05-02T13:03:48.013Z,15.43
2018-05-02T13:06:14.705Z,15.50
2018-05-02T13:08:41.405Z,14.07
2018-05-02T13:11:08.116Z,14.35
2018-05-02T13:13:34.815Z,13.82
2018-05-02T13:16:02.022Z,13.37
2018-05-02T13:18:28.760Z,13.73
2018-05-02T13:20:55.456Z,12.73
2018-05-02T13:23:22.248Z,12.55
2018-05-02T13:25:49.041Z,11.27
2018-05-02T13:28:15.748Z,11.98
2018-05-02T13:30:42.454Z,11.70
2018-05-02T13:33:09.230Z,11.23
2018-05-02T13:35:35.947Z,10.70
2018-05-02T13:38:02.837Z,10.23
2018-05-02T13:40:29.542Z,9.35
2018-05-02T13:42:56.263Z,10.00
2018-05-02T13:45:23.364Z,9.13
2018-05-02T13:47:50.036Z,8.93
2018-05-02T13:50:16.727Z,7.35
2018-05-02T13:52:43.500Z,6.50
2018-05-02T13:55:10.187Z,6.15
2018-05-02T13:57:36.878Z,6.25
2018-05-02T14:00:03.642Z,5.95
2018-05-02T14:02:30.365Z,5.15
2018-05-02T14:04:57.570Z,5.35
2018-05-02T14:07:24.302Z,5.15
2018-05-02T14:09:51.187Z,4.82
2018-05-02T14:12:17.882Z,5.00
2018-05-02T14:14:44.652Z,5.40
2018-05-02T14:17:11.451Z,4.93
2018-05-02T14:19:39.058Z,4.30
2018-05-02T14:22:05.788Z,4.90
2018-05-02T14:24:32.481Z,4.20
2018-05-02T14:26:59.191Z,3.83
2018-05-02T14:29:25.914Z,3.07
2018-05-02T14:31:52.604Z,2.37
2018-05-02T14:34:19.311Z,2.40
2018-05-02T14:36:46.071Z,1.80
2018-05-02T14:39:12.748Z,2.10
2018-05-02T14:41:39.484Z,1.90
2018-05-02T14:44:06.208Z,1.60
2018-05-02T14:46:32.976Z,2.05
2018-05-02T14:48:59.675Z,1.55
2018-05-02T14:51:26.574Z,1.50
2018-05-02T14:53:53.273Z,1.40
2018-05-02T14:56:19.982Z,1.48
2018-05-02T14:58:46.669Z,1.30
2018-05-02T15:01:13.428Z,1.30
2018-05-02T15:03:40.266Z,1.30
2018-05-02T15:06:06.966Z,1.17
2018-05-02T15:08:33.680Z,1.30
2018-05-02T15:11:00.412Z,1.10
2018-05-02T15:13:27.104Z,1.17
2018-05-02T15:15:53.788Z,0.90
2018-05-02T15:18:20.508Z,1.10
2018-05-02T15:20:47.320Z,1.20
2018-05-02T15:23:14.001Z,1.20
2018-05-02T15:25:40.720Z,1.00
2018-05-02T15:28:07.426Z,0.90
2018-05-02T15:30:34.157Z,1.30
2018-05-02T15:33:00.884Z,0.90
2018-05-02T15:35:27.577Z,1.00
2018-05-02T15:37:54.405Z,1.12
2018-05-02T15:40:21.239Z,1.25
2018-05-02T15:42:47.946Z,0.88
2018-05-02T15:45:14.777Z,0.98
2018-05-02T15:47:41.577Z,1.52
2018-05-02T15:50:08.295Z,27.60
2018-05-02T15:52:35.097Z,38.35
2018-05-02T15:55:01.902Z,37.13
2018-05-02T15:57:28.591Z,43.65
2018-05-02T15:59:55.283Z,45.63
2018-05-02T16:02:21.995Z,48.05
2018-05-02T16:04:48.857Z,43.72
2018-05-02T16:07:15.569Z,42.78
2018-05-02T16:09:42.271Z,37.95
2018-05-02T16:12:09.070Z,36.10
2018-05-02T16:14:35.825Z,35.25
2018-05-02T16:17:02.511Z,31.65
2018-05-02T16:19:29.245Z,31.90
2018-05-02T16:21:56.055Z,30.88
2018-05-02T16:24:23.387Z,29.02
2018-05-02T16:26:50.143Z,27.35
2018-05-02T16:29:16.975Z,25.70
2018-05-02T16:31:43.707Z,25.20
2018-05-02T16:34:10.412Z,29.83
2018-05-02T16:36:37.195Z,23.15
2018-05-02T16:39:03.948Z,21.77
2018-05-02T16:41:30.616Z,22.40
2018-05-02T16:43:57.339Z,19.48
2018-05-02T16:46:24.063Z,19.05
2018-05-02T16:48:50.917Z,18.50
2018-05-02T16:51:17.676Z,17.25
2018-05-02T16:53:44.710Z,16.12
2018-05-02T16:56:11.548Z,16.12
2018-05-02T16:58:38.247Z,14.38
2018-05-02T17:01:04.977Z,13.40
2018-05-02T17:03:31.683Z,13.75
2018-05-02T17:05:58.515Z,13.93
2018-05-02T17:08:25.253Z,12.85
2018-05-02T17:10:51.970Z,11.77
2018-05-02T17:13:18.667Z,11.32
2018-05-02T17:15:45.502Z,10.70
2018-05-02T17:18:12.259Z,10.80
2018-05-02T17:20:38.953Z,10.20
2018-05-02T17:23:05.667Z,9.40
2018-05-02T17:25:32.363Z,9.05
2018-05-02T17:27:59.043Z,9.15
2018-05-02T17:30:25.753Z,8.27
2018-05-02T17:32:52.439Z,8.32
2018-05-02T17:35:19.156Z,7.87
2018-05-02T17:37:45.841Z,7.78
2018-05-02T17:40:12.620Z,7.22
2018-05-02T17:42:39.339Z,6.87
2018-05-02T17:45:06.019Z,7.30
2018-05-02T17:47:33.379Z,7.25
2018-05-02T17:50:00.099Z,6.30
2018-05-02T17:52:26.881Z,6.00
2018-05-02T17:54:53.642Z,6.00
2018-05-02T17:57:21.254Z,5.30
2018-05-02T17:59:47.967Z,5.70
2018-05-02T18:02:14.729Z,4.55
2018-05-02T18:04:41.474Z,4.28
2018-05-02T18:07:08.217Z,4.60
2018-05-02T18:09:34.922Z,4.82
2018-05-02T18:12:01.645Z,4.87
2018-05-02T18:14:28.366Z,4.35
2018-05-02T18:16:55.103Z,4.15
2018-05-02T18:19:21.853Z,4.55
2018-05-02T18:21:48.758Z,3.97
2018-05-02T18:24:15.495Z,3.70
2018-05-02T18:26:42.226Z,3.22
2018-05-02T18:29:09.239Z,2.60
2018-05-02T18:31:36.001Z,3.03
2018-05-02T18:34:02.746Z,2.28
2018-05-02T18:36:29.590Z,1.98
2018-05-02T18:38:57.362Z,2.12
2018-05-02T18:41:25.025Z,2.12
2018-05-02T18:43:51.976Z,2.22
2018-05-02T18:46:18.780Z,1.80
2018-05-02T18:48:45.576Z,1.50
2018-05-02T18:51:12.462Z,1.83
2018-05-02T18:53:39.228Z,1.90
2018-05-02T18:56:06.008Z,1.80
2018-05-02T18:58:33.103Z,1.55
2018-05-02T19:01:00.073Z,1.83
2018-05-02T19:03:26.873Z,1.60
2018-05-02T19:05:54.352Z,1.40
2018-05-02T19:08:21.150Z,1.40
2018-05-02T19:10:47.956Z,1.58
2018-05-02T19:13:14.702Z,1.40
2018-05-02T19:15:42.331Z,1.55
2018-05-02T19:18:14.875Z,1.60
2018-05-02T19:20:41.969Z,1.48
2018-05-02T19:23:08.763Z,1.17
2018-05-02T19:25:41.392Z,1.23
2018-05-02T19:28:08.236Z,1.40
2018-05-02T19:30:34.999Z,1.27
2018-05-02T19:33:07.293Z,1.60
2018-05-02T19:35:34.086Z,1.33
2018-05-02T19:38:00.875Z,1.50
2018-05-02T19:40:33.308Z,1.87
2018-05-02T19:43:06.544Z,1.40
2018-05-02T19:45:33.454Z,1.55
2018-05-02T19:48:00.188Z,1.40
2018-05-02T19:50:27.891Z,1.45
2018-05-02T19:52:55.705Z,1.15
2018-05-02T19:55:22.781Z,1.50
2018-05-02T19:57:49.607Z,1.50
2018-05-02T20:00:22.122Z,1.30
2018-05-02T20:02:55.164Z,1.20
2018-05-02T20:05:22.836Z,1.50
2018-05-02T20:07:50.456Z,1.42
2018-05-02T20:10:22.979Z,1.15
2018-05-02T20:12:57.152Z,1.30
2018-05-02T20:15:23.887Z,1.65
2018-05-02T20:17:50.622Z,1.05
2018-05-02T20:20:17.817Z,1.25
2018-05-02T20:22:44.541Z,1.20
2018-05-02T20:25:12.437Z,1.12
2018-05-02T20:27:39.917Z,1.40
2018-05-02T20:30:06.687Z,1.00
2018-05-02T20:32:33.415Z,1.20
2018-05-02T20:35:01.031Z,1.25
2018-05-02T20:37:27.741Z,1.23
2018-05-02T20:39:54.491Z,1.27
2018-05-02T20:42:21.970Z,1.30
2018-05-02T20:44:48.689Z,1.20
2018-05-02T20:47:15.537Z,1.20
2018-05-02T20:49:42.366Z,1.10
2018-05-02T20:52:09.210Z,1.27
2018-05-02T20:54:35.932Z,1.40
2018-05-02T20:57:02.651Z,1.30
2018-05-02T20:59:29.467Z,1.17
2018-05-02T21:01:56.188Z,1.10
2018-05-02T21:04:23.905Z,0.90
2018-05-02T21:06:50.677Z,1.37
2018-05-02T21:09:17.438Z,1.20
2018-05-02T21:11:44.153Z,1.30
2018-05-02T21:14:10.871Z,1.25
2018-05-02T21:16:37.607Z,1.30
2018-05-02T21:19:04.667Z,1.25
2018-05-02T21:21:31.343Z,0.90
2018-05-02T21:23:58.059Z,1.20
2018-05-02T21:26:24.794Z,1.10
2018-05-02T21:28:51.523Z,1.17
2018-05-02T21:31:18.206Z,1.45
2018-05-02T21:33:44.893Z,1.15
2018-05-02T21:36:11.622Z,1.20
2018-05-02T21:38:38.312Z,1.30
2018-05-02T21:41:05.034Z,1.40
2018-05-02T21:43:31.742Z,1.20
2018-05-02T21:45:58.428Z,1.10
2018-05-02T21:48:25.111Z,1.10
2018-05-02T21:50:51.789Z,1.15
2018-05-02T21:53:18.468Z,1.25
2018-05-02T21:55:45.180Z,1.10
2018-05-02T21:58:11.971Z,1.40
2018-05-02T22:00:38.669Z,1.25
2018-05-02T22:03:05.379Z,2.05
2018-05-02T22:05:32.116Z,1.10
2018-05-02T22:07:58.828Z,1.00
2018-05-02T22:10:25.500Z,1.20
2018-05-02T22:12:52.165Z,0.98
2018-05-02T22:15:18.838Z,1.00
2018-05-02T22:17:46.012Z,1.42
2018-05-02T22:20:12.742Z,1.25
2018-05-02T22:22:39.412Z,1.30
2018-05-02T22:25:06.128Z,1.30
2018-05-02T22:27:32.798Z,1.17
2018-05-02T22:29:59.482Z,1.20
2018-05-02T22:32:26.152Z,1.10
2018-05-02T22:34:52.968Z,0.90
2018-05-02T22:37:19.650Z,1.15
2018-05-02T22:39:46.336Z,1.27
2018-05-02T22:42:13.048Z,1.05
2018-05-02T22:44:39.754Z,1.02
2018-05-02T22:47:06.557Z,1.23
2018-05-02T22:49:33.245Z,1.20
2018-05-02T22:52:00.063Z,1.20
2018-05-02T22:54:26.748Z,1.00
2018-05-02T22:56:53.450Z,1.02
2018-05-02T22:59:20.150Z,1.23
2018-05-02T23:01:46.922Z,1.48
2018-05-02T23:04:13.652Z,1.10
2018-05-02T23:06:40.336Z,1.37
2018-05-02T23:09:07.026Z,1.00
2018-05-02T23:11:33.886Z,1.23
2018-05-02T23:14:00.572Z,1.15
2018-05-02T23:16:27.272Z,1.20
2018-05-02T23:18:54.084Z,1.00
2018-05-02T23:21:20.774Z,1.20
2018-05-02T23:23:47.458Z,1.10
2018-05-02T23:26:14.156Z,1.10
2018-05-02T23:28:40.830Z,1.12
2018-05-02T23:31:07.584Z,1.08
2018-05-02T23:33:34.276Z,1.45
2018-05-02T23:36:01.058Z,1.15
2018-05-02T23:38:27.728Z,1.30
2018-05-02T23:40:54.426Z,1.00
2018-05-02T23:43:21.111Z,1.23
2018-05-02T23:45:47.792Z,1.20
2018-05-02T23:48:14.798Z,1.08
2018-05-02T23:50:41.482Z,1.08
2018-05-02T23:53:08.336Z,1.12
2018-05-02T23:55:35.039Z,0.98
2018-05-02T23:58:01.876Z,0.98
